createdAt,value
2022-10-24T00:00:15.005Z,100498.94
2022-10-24T00:02:41.652Z,100488.66
2022-10-24T00:05:08.543Z,100489.94
2022-10-24T00:07:34.991Z,100496.34
2022-10-24T00:10:01.434Z,100495.94
2022-10-24T00:12:28.001Z,100494.56
2022-10-24T00:14:54.454Z,100493.78
2022-10-24T00:17:21.279Z,100489.03
2022-10-24T00:19:47.949Z,100484.91
2022-10-24T00:22:14.442Z,100484.31
2022-10-24T00:24:40.919Z,100486.53
2022-10-24T00:27:09.522Z,100479.13
2022-10-24T00:29:36.016Z,100488.22
2022-10-24T00:32:02.522Z,100481.63
2022-10-24T00:34:29.071Z,100494.84
2022-10-24T00:36:55.535Z,100497.00
2022-10-24T00:39:22.024Z,100488.75
2022-10-24T00:41:48.659Z,100500.25
2022-10-24T00:44:32.286Z,100497.81
2022-10-24T00:47:19.804Z,100497.59
2022-10-24T00:50:00.708Z,100496.56
2022-10-24T00:52:31.744Z,100486.69
2022-10-24T00:55:00.213Z,100491.44
2022-10-24T00:57:40.511Z,100486.97
2022-10-24T01:00:11.469Z,100486.13
2022-10-24T01:02:38.363Z,100493.34
2022-10-24T01:05:06.079Z,100486.09
2022-10-24T01:07:57.389Z,100474.69
2022-10-24T01:10:53.080Z,100472.53
2022-10-24T01:14:13.625Z,100477.28
2022-10-24T01:17:21.919Z,100466.78
2022-10-24T01:20:24.191Z,100471.50
2022-10-24T01:23:08.856Z,100466.22
2022-10-24T01:25:44.727Z,100458.66
2022-10-24T01:28:50.227Z,100465.16
2022-10-24T01:31:25.899Z,100457.53
2022-10-24T01:33:59.159Z,100449.69
2022-10-24T01:36:37.035Z,100448.28
2022-10-24T01:39:06.716Z,100441.50
2022-10-24T01:41:33.706Z,100444.41
2022-10-24T01:44:05.254Z,100431.19
2022-10-24T01:46:42.911Z,100428.25
2022-10-24T01:49:13.926Z,100429.03
2022-10-24T01:51:40.984Z,100418.81
2022-10-24T01:54:09.358Z,100413.53
2022-10-24T01:56:35.859Z,100412.72
2022-10-24T01:59:28.565Z,100416.03
2022-10-24T02:02:19.318Z,100423.25
2022-10-24T02:04:57.432Z,100420.78
2022-10-24T02:07:25.332Z,100423.00
2022-10-24T02:09:55.382Z,100410.63
2022-10-24T02:12:23.487Z,100410.41
2022-10-24T02:14:53.897Z,100399.19
2022-10-24T02:17:20.606Z,100402.63
2022-10-24T02:19:48.119Z,100403.03
2022-10-24T02:22:22.187Z,100399.63
2022-10-24T02:24:53.811Z,100409.28
2022-10-24T02:27:27.544Z,100405.28
2022-10-24T02:30:01.881Z,100392.19
2022-10-24T02:32:40.526Z,100388.50
2022-10-24T02:35:08.573Z,100386.72
2022-10-24T02:37:40.166Z,100378.25
2022-10-24T02:40:07.463Z,100377.38
2022-10-24T02:42:34.519Z,100376.97
2022-10-24T02:45:01.303Z,100376.41
2022-10-24T02:47:28.589Z,100373.84
2022-10-24T02:49:55.147Z,100372.41
2022-10-24T02:52:21.859Z,100375.44
2022-10-24T02:54:48.462Z,100379.63
2022-10-24T02:57:15.427Z,100376.72
2022-10-24T02:59:42.068Z,100367.44
2022-10-24T03:02:08.900Z,100373.34
2022-10-24T03:04:35.433Z,100367.44
2022-10-24T03:07:01.890Z,100372.56
2022-10-24T03:09:28.380Z,100367.69
2022-10-24T03:11:54.834Z,100362.75
2022-10-24T03:14:21.446Z,100367.28
2022-10-24T03:16:48.013Z,100366.31
2022-10-24T03:19:14.635Z,100356.19
2022-10-24T03:21:41.672Z,100356.53
2022-10-24T03:26:39.710Z,100348.44
2022-10-24T03:29:06.164Z,100345.03
2022-10-24T03:31:32.899Z,100341.56
2022-10-24T03:33:59.348Z,100340.72
2022-10-24T03:36:26.213Z,100337.09
2022-10-24T03:38:52.711Z,100332.69
2022-10-24T03:41:19.182Z,100328.41
2022-10-24T03:43:45.652Z,100331.16
2022-10-24T03:46:12.160Z,100332.47
2022-10-24T03:48:38.626Z,100323.28
2022-10-24T03:51:05.324Z,100324.22
2022-10-24T03:53:31.944Z,100316.19
2022-10-24T03:55:59.690Z,100303.84
2022-10-24T03:58:26.529Z,100306.66
2022-10-24T04:00:53.275Z,100313.66
2022-10-24T04:03:19.800Z,100305.94
2022-10-24T04:05:46.268Z,100310.06
2022-10-24T04:08:12.768Z,100314.09
2022-10-24T04:10:39.305Z,100316.09
2022-10-24T04:13:05.793Z,100322.19
2022-10-24T04:15:32.359Z,100321.44
2022-10-24T04:17:59.179Z,100322.91
2022-10-24T04:20:25.730Z,100317.09
2022-10-24T04:22:52.348Z,100315.50
2022-10-24T04:25:19.088Z,100315.94
2022-10-24T04:27:46.308Z,100315.31
2022-10-24T04:30:16.660Z,100312.66
2022-10-24T04:32:43.880Z,100314.75
2022-10-24T04:35:10.622Z,100320.50
2022-10-24T04:37:37.157Z,100319.66
2022-10-24T04:40:05.656Z,100321.06
2022-10-24T04:42:32.208Z,100321.06
2022-10-24T04:44:58.756Z,100315.06
2022-10-24T04:47:25.211Z,100319.16
2022-10-24T04:49:51.674Z,100317.09
2022-10-24T04:52:18.207Z,100318.34
2022-10-24T04:54:44.670Z,100317.69
2022-10-24T04:57:11.207Z,100312.50
2022-10-24T04:59:37.897Z,100312.31
2022-10-24T05:02:04.372Z,100298.38
2022-10-24T05:04:30.955Z,100300.06
2022-10-24T05:06:57.420Z,100298.00
2022-10-24T05:09:23.867Z,100294.47
2022-10-24T05:11:50.375Z,100300.28
2022-10-24T05:14:17.340Z,100296.47
2022-10-24T05:16:43.922Z,100293.28
2022-10-24T05:19:10.427Z,100291.47
2022-10-24T05:21:36.916Z,100284.53
2022-10-24T05:24:03.494Z,100289.22
2022-10-24T05:26:29.972Z,100293.19
2022-10-24T05:28:56.751Z,100294.56
2022-10-24T05:31:23.332Z,100304.81
2022-10-24T05:33:49.814Z,100308.34
2022-10-24T05:36:16.433Z,100311.38
2022-10-24T05:38:42.909Z,100306.47
2022-10-24T05:41:09.359Z,100312.00
2022-10-24T05:43:35.886Z,100314.47
2022-10-24T05:46:02.333Z,100319.38
2022-10-24T05:48:28.790Z,100320.78
2022-10-24T05:50:58.723Z,100320.56
2022-10-24T05:53:26.307Z,100320.13
2022-10-24T05:55:52.803Z,100327.47
2022-10-24T05:58:21.361Z,100320.84
2022-10-24T06:00:53.812Z,100316.66
2022-10-24T06:03:20.655Z,100318.63
2022-10-24T06:05:47.147Z,100326.91
2022-10-24T06:08:13.630Z,100323.00
2022-10-24T06:10:40.077Z,100315.88
2022-10-24T06:13:06.589Z,100322.00
2022-10-24T06:15:33.046Z,100323.19
2022-10-24T06:18:00.473Z,100312.50
2022-10-24T06:20:26.913Z,100306.50
2022-10-24T06:22:53.377Z,100321.03
2022-10-24T06:25:19.866Z,100312.06
2022-10-24T06:27:46.332Z,100298.94
2022-10-24T06:30:12.922Z,100299.22
2022-10-24T06:32:43.550Z,100299.34
2022-10-24T06:35:13.342Z,100299.47
2022-10-24T06:37:45.812Z,100290.84
2022-10-24T06:40:14.559Z,100287.25
2022-10-24T06:42:41.018Z,100272.06
2022-10-24T06:45:07.770Z,100264.16
2022-10-24T06:47:34.264Z,100248.50
2022-10-24T06:50:00.771Z,100233.03
2022-10-24T06:52:27.277Z,100215.66
2022-10-24T06:54:53.727Z,100213.44
2022-10-24T06:57:20.196Z,100211.97
2022-10-24T06:59:46.656Z,100190.38
2022-10-24T07:02:14.728Z,100194.16
2022-10-24T07:04:41.640Z,100192.22
2022-10-24T07:07:16.097Z,100191.31
2022-10-24T07:09:42.563Z,100193.75
2022-10-24T07:12:09.832Z,100176.78
2022-10-24T07:14:36.349Z,100166.91
2022-10-24T07:17:03.216Z,100183.72
2022-10-24T07:19:31.801Z,100202.91
2022-10-24T07:21:59.328Z,100214.88
2022-10-24T07:24:25.837Z,100207.53
2022-10-24T07:26:52.359Z,100217.91
2022-10-24T07:29:18.815Z,100217.41
2022-10-24T07:31:46.959Z,100233.66
2022-10-24T07:34:13.417Z,100236.59
2022-10-24T07:36:42.820Z,100233.78
2022-10-24T07:39:10.314Z,100233.44
2022-10-24T07:41:40.563Z,100235.91
2022-10-24T07:44:07.377Z,100244.06
2022-10-24T07:46:33.847Z,100246.81
2022-10-24T07:49:00.358Z,100241.97
2022-10-24T07:51:28.492Z,100243.13
2022-10-24T07:53:55.144Z,100238.25
2022-10-24T07:56:22.076Z,100235.22
2022-10-24T07:58:49.384Z,100240.38
2022-10-24T08:01:23.462Z,100231.19
2022-10-24T08:03:50.087Z,100236.41
2022-10-24T08:06:18.842Z,100234.09
2022-10-24T08:08:45.584Z,100233.75
2022-10-24T08:11:14.745Z,100237.94
2022-10-24T08:13:41.504Z,100227.47
2022-10-24T08:16:09.730Z,100226.34
2022-10-24T08:18:38.840Z,100232.84
2022-10-24T08:21:08.558Z,100225.81
2022-10-24T08:23:35.936Z,100215.88
2022-10-24T08:26:06.522Z,100208.19
2022-10-24T08:28:33.191Z,100206.84
2022-10-24T08:31:02.439Z,100201.66
2022-10-24T08:33:28.984Z,100203.94
2022-10-24T08:35:59.160Z,100191.94
2022-10-24T08:38:25.827Z,100195.28
2022-10-24T08:40:52.324Z,100194.38
2022-10-24T08:43:19.649Z,100182.16
2022-10-24T08:46:02.154Z,100171.13
2022-10-24T08:48:32.758Z,100163.59
2022-10-24T08:51:23.932Z,100157.88
2022-10-24T08:53:52.255Z,100163.81
2022-10-24T08:56:18.703Z,100157.69
2022-10-24T08:58:46.560Z,100158.75
2022-10-24T09:01:33.637Z,100133.91
2022-10-24T09:04:04.341Z,100125.66
2022-10-24T09:06:32.382Z,100127.78
2022-10-24T09:09:12.635Z,100106.81
2022-10-24T09:11:52.483Z,100096.06
2022-10-24T09:14:23.889Z,100098.34
2022-10-24T09:20:00.953Z,100094.34
2022-10-24T09:22:30.758Z,100074.25
2022-10-24T09:25:06.490Z,100056.00
2022-10-24T09:27:38.565Z,100070.22
2022-10-24T09:30:07.863Z,100065.78
2022-10-24T09:32:36.003Z,100064.63
2022-10-24T09:35:15.422Z,100070.16
2022-10-24T09:37:51.432Z,100069.53
2022-10-24T09:40:30.272Z,100065.25
2022-10-24T09:43:15.322Z,100074.34
2022-10-24T09:46:02.676Z,100092.28
2022-10-24T09:48:54.016Z,100099.78
2022-10-24T09:51:26.513Z,100116.59
2022-10-24T09:54:05.170Z,100104.97
2022-10-24T09:56:40.220Z,100096.91
2022-10-24T09:59:28.351Z,100112.63
2022-10-24T10:02:10.446Z,100111.03
2022-10-24T10:04:37.904Z,100114.75
2022-10-24T10:07:12.965Z,100120.63
2022-10-24T10:09:50.581Z,100130.56
2022-10-24T10:12:26.764Z,100134.06
2022-10-24T10:14:53.695Z,100122.25
2022-10-24T10:17:31.210Z,100133.53
2022-10-24T10:19:58.310Z,100123.88
2022-10-24T10:22:29.263Z,100120.38
2022-10-24T10:24:57.631Z,100117.94
2022-10-24T10:27:33.228Z,100123.38
2022-10-24T10:30:19.062Z,100114.28
2022-10-24T10:33:14.911Z,100120.69
2022-10-24T10:36:01.481Z,100125.66
2022-10-24T10:38:52.574Z,100117.03
2022-10-24T10:41:37.543Z,100123.50
2022-10-24T10:44:13.060Z,100137.38
2022-10-24T10:46:52.480Z,100148.56
2022-10-24T10:49:28.526Z,100146.84
2022-10-24T10:51:57.791Z,100145.13
2022-10-24T10:54:54.574Z,100147.00
2022-10-24T10:57:34.617Z,100144.41
2022-10-24T11:00:18.245Z,100163.94
2022-10-24T11:02:57.482Z,100154.34
2022-10-24T11:05:32.518Z,100154.41
2022-10-24T11:08:05.954Z,100148.88
2022-10-24T11:10:37.570Z,100144.09
2022-10-24T11:13:07.618Z,100149.03
2022-10-24T11:15:41.039Z,100147.97
2022-10-24T11:18:31.528Z,100137.88
2022-10-24T11:21:08.695Z,100140.44
2022-10-24T11:24:07.583Z,100148.47
2022-10-24T11:26:41.446Z,100149.97
2022-10-24T11:29:24.050Z,100124.59
2022-10-24T11:31:55.220Z,100118.94
2022-10-24T11:34:26.924Z,100110.59
2022-10-24T11:37:18.225Z,100105.09
2022-10-24T11:39:52.680Z,100085.19
2022-10-24T11:42:30.072Z,100072.94
2022-10-24T11:45:11.081Z,100053.59
2022-10-24T11:47:49.589Z,100068.22
2022-10-24T11:50:36.596Z,100061.56
2022-10-24T11:53:34.060Z,100079.13
2022-10-24T11:56:27.296Z,100086.03
2022-10-24T11:59:08.095Z,100097.47
2022-10-24T12:01:34.503Z,100091.00
2022-10-24T12:04:19.769Z,100090.59
2022-10-24T12:07:21.811Z,100097.91
2022-10-24T12:10:05.083Z,100110.88
2022-10-24T12:12:40.744Z,100144.00
2022-10-24T12:15:28.600Z,100148.72
2022-10-24T12:18:34.025Z,100116.53
2022-10-24T12:21:07.191Z,100126.47
2022-10-24T12:23:34.314Z,100107.72
2022-10-24T12:26:18.341Z,100109.84
2022-10-24T12:28:55.546Z,100113.84
2022-10-24T12:31:27.220Z,100109.16
2022-10-24T12:34:15.949Z,100123.97
2022-10-24T12:37:05.806Z,100114.72
2022-10-24T12:39:37.998Z,100102.47
2022-10-24T12:42:04.732Z,100101.25
2022-10-24T12:44:34.183Z,100110.78
2022-10-24T12:47:02.317Z,100112.22
2022-10-24T12:49:32.974Z,100115.53
2022-10-24T12:52:39.754Z,100114.75
2022-10-24T12:55:39.731Z,100128.63
2022-10-24T12:58:29.007Z,100148.09
2022-10-24T13:01:01.056Z,100120.56
2022-10-24T13:03:43.693Z,100087.28
2022-10-24T13:06:34.394Z,100053.91
2022-10-24T13:09:20.426Z,100029.06
2022-10-24T13:11:54.044Z,99994.34
2022-10-24T13:14:48.358Z,100030.53
2022-10-24T13:17:32.832Z,100071.66
2022-10-24T13:20:15.710Z,100087.50
2022-10-24T13:22:42.855Z,100106.63
2022-10-24T13:25:39.171Z,100116.00
2022-10-24T13:28:22.223Z,100121.81
2022-10-24T13:30:53.256Z,100117.03
2022-10-24T13:33:28.681Z,100116.88
2022-10-24T13:35:57.499Z,100118.13
2022-10-24T13:38:24.354Z,100129.28
2022-10-24T13:40:50.912Z,100156.19
2022-10-24T13:43:21.197Z,100130.72
2022-10-24T13:45:56.338Z,100134.56
2022-10-24T13:48:29.024Z,100088.47
2022-10-24T13:51:20.982Z,100067.16
2022-10-24T13:54:01.254Z,100046.44
2022-10-24T13:56:29.560Z,100093.28
2022-10-24T13:58:56.043Z,100117.09
2022-10-24T14:01:26.874Z,100098.53
2022-10-24T14:03:54.588Z,100088.72
2022-10-24T14:06:39.308Z,100094.66
2022-10-24T14:09:11.619Z,100111.56
2022-10-24T14:11:44.120Z,100084.63
2022-10-24T14:14:32.362Z,100074.75
2022-10-24T14:17:32.880Z,100060.25
2022-10-24T14:20:13.307Z,100065.34
2022-10-24T14:22:40.864Z,100072.13
2022-10-24T14:25:26.073Z,100066.91
2022-10-24T14:27:57.712Z,100081.75
2022-10-24T14:30:27.697Z,100068.59
2022-10-24T14:33:27.763Z,100070.25
2022-10-24T14:35:57.858Z,100072.91
2022-10-24T14:38:26.274Z,100092.09
2022-10-24T14:41:06.235Z,100128.19
2022-10-24T14:43:33.586Z,100167.63
2022-10-24T14:46:12.133Z,100188.59
2022-10-24T14:48:41.403Z,100199.56
2022-10-24T14:51:24.609Z,100196.38
2022-10-24T14:53:51.197Z,100216.88
2022-10-24T14:56:28.734Z,100231.56
2022-10-24T14:58:57.252Z,100235.16
2022-10-24T15:01:24.456Z,100238.63
2022-10-24T15:03:53.327Z,100235.25
2022-10-24T15:06:37.407Z,100250.63
2022-10-24T15:09:12.932Z,100236.22
2022-10-24T15:11:41.971Z,100241.31
2022-10-24T15:14:36.365Z,100243.06
2022-10-24T15:17:30.018Z,100233.41
2022-10-24T15:20:01.230Z,100246.66
2022-10-24T15:22:30.568Z,100241.56
2022-10-24T15:25:00.094Z,100244.22
2022-10-24T15:27:47.272Z,100251.06
2022-10-24T15:30:21.490Z,100250.47
2022-10-24T15:32:49.482Z,100236.97
2022-10-24T15:35:16.752Z,100245.00
2022-10-24T15:38:00.290Z,100248.16
2022-10-24T15:40:30.411Z,100251.84
2022-10-24T15:42:57.056Z,100248.38
2022-10-24T15:45:23.667Z,100258.25
2022-10-24T15:47:51.005Z,100253.00
2022-10-24T15:50:19.291Z,100257.44
2022-10-24T15:52:49.190Z,100256.16
2022-10-24T15:55:22.486Z,100249.16
2022-10-24T15:57:49.710Z,100261.72
2022-10-24T16:00:18.502Z,100272.41
2022-10-24T16:02:49.338Z,100267.66
2022-10-24T16:05:27.693Z,100274.63
2022-10-24T16:07:54.170Z,100280.56
2022-10-24T16:10:22.507Z,100285.09
2022-10-24T16:12:50.424Z,100286.16
2022-10-24T16:15:23.494Z,100292.66
2022-10-24T16:17:50.161Z,100299.66
2022-10-24T16:20:17.332Z,100298.84
2022-10-24T16:22:44.215Z,100304.44
2022-10-24T16:25:17.869Z,100314.19
2022-10-24T16:27:44.523Z,100313.69
2022-10-24T16:30:12.605Z,100307.38
2022-10-24T16:32:39.111Z,100320.03
2022-10-24T16:35:06.196Z,100326.25
2022-10-24T16:37:32.654Z,100335.63
2022-10-24T16:39:59.642Z,100338.91
2022-10-24T16:42:26.213Z,100340.97
2022-10-24T16:44:52.679Z,100337.84
2022-10-24T16:47:19.226Z,100345.97
2022-10-24T16:49:45.682Z,100353.00
2022-10-24T16:52:12.494Z,100360.28
2022-10-24T16:54:39.835Z,100363.84
2022-10-24T16:57:06.711Z,100376.56
2022-10-24T16:59:33.211Z,100369.19
2022-10-24T17:01:59.821Z,100387.53
2022-10-24T17:04:29.033Z,100392.06
2022-10-24T17:06:56.755Z,100391.41
2022-10-24T17:09:23.403Z,100392.22
2022-10-24T17:11:50.979Z,100392.47
2022-10-24T17:14:17.577Z,100406.50
2022-10-24T17:16:44.057Z,100415.13
2022-10-24T17:19:18.004Z,100422.97
2022-10-24T17:21:46.972Z,100408.94
2022-10-24T17:24:14.059Z,100420.06
2022-10-24T17:26:41.796Z,100423.03
2022-10-24T17:29:10.664Z,100417.44
2022-10-24T17:31:37.143Z,100431.25
2022-10-24T17:34:03.955Z,100433.56
2022-10-24T17:36:33.682Z,100447.94
2022-10-24T17:39:10.014Z,100446.91
2022-10-24T17:41:40.600Z,100443.19
2022-10-24T17:44:12.066Z,100446.69
2022-10-24T17:46:39.163Z,100449.13
2022-10-24T17:49:05.664Z,100457.75
2022-10-24T17:51:36.994Z,100459.38
2022-10-24T17:54:05.815Z,100457.91
2022-10-24T17:56:32.485Z,100470.47
2022-10-24T17:58:58.954Z,100460.59
2022-10-24T18:01:25.528Z,100462.59
2022-10-24T18:03:52.111Z,100475.16
2022-10-24T18:06:18.704Z,100471.06
2022-10-24T18:08:45.206Z,100476.97
2022-10-24T18:11:12.904Z,100464.47
2022-10-24T18:13:39.742Z,100472.47
2022-10-24T18:16:10.961Z,100481.31
2022-10-24T18:18:39.852Z,100486.84
2022-10-24T18:21:08.304Z,100489.09
2022-10-24T18:23:35.376Z,100495.03
2022-10-24T18:26:09.231Z,100496.09
2022-10-24T18:28:40.085Z,100501.22
2022-10-24T18:31:08.342Z,100504.47
2022-10-24T18:33:35.836Z,100499.97
2022-10-24T18:36:07.284Z,100498.75
2022-10-24T18:38:35.642Z,100498.53
2022-10-24T18:41:02.810Z,100498.34
2022-10-24T18:43:29.737Z,100502.03
2022-10-24T18:45:56.504Z,100498.75
2022-10-24T18:48:23.136Z,100494.44
2022-10-24T18:50:50.016Z,100505.97
2022-10-24T18:53:24.698Z,100509.66
2022-10-24T18:55:51.960Z,100512.72
2022-10-24T18:58:19.542Z,100512.72
2022-10-24T19:00:47.064Z,100510.69
2022-10-24T19:03:35.705Z,100514.19
2022-10-24T19:06:21.964Z,100515.44
2022-10-24T19:08:48.457Z,100513.56
2022-10-24T19:11:15.362Z,100520.56
2022-10-24T19:13:42.294Z,100517.31
2022-10-24T19:16:14.732Z,100523.25
2022-10-24T19:18:49.276Z,100519.72
2022-10-24T19:21:15.743Z,100525.72
2022-10-24T19:23:42.256Z,100525.16
2022-10-24T19:26:10.351Z,100521.44
2022-10-24T19:28:36.793Z,100525.97
2022-10-24T19:31:03.278Z,100530.66
2022-10-24T19:33:30.243Z,100537.41
2022-10-24T19:35:56.854Z,100532.88
2022-10-24T19:38:24.348Z,100532.88
2022-10-24T19:40:52.645Z,100539.84
2022-10-24T19:43:20.377Z,100538.03
2022-10-24T19:45:54.959Z,100536.59
2022-10-24T19:48:34.202Z,100532.88
2022-10-24T19:51:03.958Z,100532.03
2022-10-24T19:53:35.887Z,100525.84
2022-10-24T19:56:06.820Z,100537.97
2022-10-24T19:58:33.451Z,100535.72
2022-10-24T20:01:06.167Z,100537.38
2022-10-24T20:03:35.508Z,100539.44
2022-10-24T20:06:01.992Z,100544.38
2022-10-24T20:08:28.547Z,100540.25
2022-10-24T20:10:55.027Z,100541.06
2022-10-24T20:13:21.914Z,100541.50
2022-10-24T20:16:03.643Z,100545.78
2022-10-24T20:18:31.280Z,100549.50
2022-10-24T20:20:58.099Z,100545.81
2022-10-24T20:23:25.087Z,100548.28
2022-10-24T20:26:18.369Z,100550.75
2022-10-24T20:28:46.731Z,100553.41
2022-10-24T20:31:36.360Z,100556.09
2022-10-24T20:34:08.398Z,100561.22
2022-10-24T20:36:39.557Z,100558.53
2022-10-24T20:39:07.122Z,100565.34
2022-10-24T20:41:33.575Z,100573.13
2022-10-24T20:44:00.657Z,100567.78
2022-10-24T20:46:38.910Z,100573.13
2022-10-24T20:49:05.652Z,100584.47
2022-10-24T20:51:32.103Z,100583.66
2022-10-24T20:53:58.770Z,100585.88
2022-10-24T20:56:26.686Z,100584.69
2022-10-24T20:58:54.600Z,100582.44
2022-10-24T21:01:24.081Z,100588.84
2022-10-24T21:03:51.590Z,100588.38
2022-10-24T21:06:22.081Z,100587.56
2022-10-24T21:08:49.834Z,100597.06
2022-10-24T21:11:18.417Z,100589.44
2022-10-24T21:13:45.388Z,100594.19
2022-10-24T21:16:12.508Z,100595.38
2022-10-24T21:18:39.060Z,100603.97
2022-10-24T21:21:07.555Z,100601.09
2022-10-24T21:23:34.141Z,100598.84
2022-10-24T21:26:07.958Z,100602.97
2022-10-24T21:28:35.161Z,100604.81
2022-10-24T21:31:15.161Z,100606.25
2022-10-24T21:33:43.797Z,100608.09
2022-10-24T21:36:15.553Z,100614.09
2022-10-24T21:38:45.534Z,100611.66
2022-10-24T21:41:12.086Z,100620.47
2022-10-24T21:43:40.577Z,100617.28
2022-10-24T21:46:08.032Z,100621.78
2022-10-24T21:48:37.788Z,100624.66
2022-10-24T21:51:15.758Z,100620.78
2022-10-24T21:53:44.714Z,100621.59
2022-10-24T21:56:16.390Z,100624.88
2022-10-24T21:58:47.057Z,100625.72
2022-10-24T22:01:15.955Z,100643.97
2022-10-24T22:03:42.545Z,100644.34
2022-10-24T22:06:11.726Z,100647.44
2022-10-24T22:08:38.181Z,100636.56
2022-10-24T22:11:16.478Z,100653.41
2022-10-24T22:13:43.710Z,100651.56
2022-10-24T22:16:12.003Z,100659.13
2022-10-24T22:18:38.964Z,100661.59
2022-10-24T22:21:07.611Z,100663.22
2022-10-24T22:23:35.504Z,100664.06
2022-10-24T22:26:02.110Z,100660.34
2022-10-24T22:28:28.834Z,100664.66
2022-10-24T22:30:55.645Z,100659.53
2022-10-24T22:33:34.614Z,100672.69
2022-10-24T22:36:34.497Z,100671.84
2022-10-24T22:39:03.773Z,100683.78
2022-10-24T22:41:30.502Z,100673.97
2022-10-24T22:43:57.071Z,100678.91
2022-10-24T22:46:51.782Z,100671.53
2022-10-24T22:49:21.138Z,100676.06
2022-10-24T22:51:47.876Z,100679.38
2022-10-24T22:54:18.283Z,100683.72
2022-10-24T22:56:44.866Z,100681.25
2022-10-24T22:59:11.714Z,100680.63
2022-10-24T23:01:54.534Z,100681.25
2022-10-24T23:04:47.196Z,100692.56
2022-10-24T23:07:36.000Z,100690.50
2022-10-24T23:10:02.470Z,100693.19
2022-10-24T23:12:29.102Z,100700.81
2022-10-24T23:14:55.768Z,100699.75
2022-10-24T23:17:28.071Z,100702.41
2022-10-24T23:19:55.511Z,100699.94
2022-10-24T23:22:32.417Z,100712.47
2022-10-24T23:25:00.746Z,100707.13
2022-10-24T23:27:39.091Z,100707.31
2022-10-24T23:30:09.821Z,100716.75
2022-10-24T23:32:38.003Z,100717.81
2022-10-24T23:35:04.849Z,100708.94
2022-10-24T23:37:32.808Z,100720.03
2022-10-24T23:40:00.850Z,100718.38
2022-10-24T23:42:27.676Z,100721.66
2022-10-24T23:44:54.620Z,100709.53
2022-10-24T23:47:47.580Z,100725.38
2022-10-24T23:50:26.023Z,100722.47
2022-10-24T23:53:11.002Z,100724.56
2022-10-24T23:55:37.852Z,100723.53
2022-10-24T23:58:04.464Z,100722.09
